createdAt,value
2023-05-15T00:02:35.000Z,13.50
2023-05-15T00:06:39.296Z,13.45
2023-05-15T00:10:57.413Z,13.42
2023-05-15T00:15:03.624Z,13.40
2023-05-15T00:19:06.821Z,13.37
2023-05-15T00:23:10.083Z,13.34
2023-05-15T00:27:14.671Z,13.32
2023-05-15T00:31:18.001Z,13.29
2023-05-15T00:35:20.925Z,13.27
2023-05-15T00:39:24.554Z,13.27
2023-05-15T00:43:30.601Z,13.28
2023-05-15T00:47:35.294Z,13.28
2023-05-15T00:51:38.845Z,13.32
2023-05-15T00:55:43.796Z,13.35
2023-05-15T00:59:51.502Z,13.35
2023-05-15T01:03:55.062Z,13.24
2023-05-15T01:08:10.064Z,13.14
2023-05-15T01:12:16.999Z,13.48
2023-05-15T01:16:22.799Z,13.49
2023-05-15T01:20:27.284Z,13.45
2023-05-15T01:24:51.490Z,13.48
2023-05-15T01:29:01.099Z,13.48
2023-05-15T01:33:10.083Z,13.42
2023-05-15T01:37:16.123Z,13.46
2023-05-15T01:41:26.345Z,13.45
2023-05-15T01:45:33.774Z,13.43
2023-05-15T01:49:38.176Z,13.44
2023-05-15T01:53:43.974Z,13.42
2023-05-15T01:57:48.835Z,13.40
2023-05-15T02:01:54.154Z,13.38
2023-05-15T02:05:58.057Z,13.39
2023-05-15T02:10:03.301Z,13.37
2023-05-15T02:14:07.144Z,13.36
2023-05-15T02:18:12.305Z,13.35
2023-05-15T02:22:15.528Z,13.33
2023-05-15T02:26:31.361Z,13.34
2023-05-15T02:30:40.366Z,13.32
2023-05-15T02:34:52.724Z,13.24
2023-05-15T02:38:58.046Z,13.17
2023-05-15T02:43:02.044Z,13.09
2023-05-15T02:47:06.581Z,13.05
2023-05-15T02:51:12.494Z,13.03
2023-05-15T02:55:16.296Z,13.04
2023-05-15T02:59:20.284Z,13.01
2023-05-15T03:03:23.615Z,13.00
2023-05-15T03:07:28.322Z,12.96
2023-05-15T03:11:31.751Z,12.98
2023-05-15T03:15:35.062Z,13.02
2023-05-15T03:19:38.790Z,13.03
2023-05-15T03:23:43.280Z,13.05
2023-05-15T03:27:47.042Z,13.08
2023-05-15T03:31:50.299Z,13.07
2023-05-15T03:35:53.695Z,13.09
2023-05-15T03:39:58.384Z,13.10
2023-05-15T03:44:01.753Z,13.11
2023-05-15T03:48:07.604Z,13.16
2023-05-15T03:52:11.763Z,13.19
2023-05-15T03:56:16.679Z,13.20
2023-05-15T04:00:20.534Z,13.25
2023-05-15T04:04:23.686Z,13.27
2023-05-15T04:08:27.149Z,13.29
2023-05-15T04:12:33.385Z,13.32
2023-05-15T04:16:36.366Z,13.35
2023-05-15T04:20:39.672Z,13.39
2023-05-15T04:24:43.240Z,13.45
2023-05-15T04:29:00.176Z,13.52
2023-05-15T04:33:07.592Z,13.59
2023-05-15T04:37:10.806Z,13.67
2023-05-15T04:41:14.195Z,13.73
2023-05-15T04:45:18.906Z,13.80
2023-05-15T04:49:22.223Z,13.85
2023-05-15T04:53:25.694Z,13.88
2023-05-15T04:57:29.829Z,13.89
2023-05-15T05:01:34.558Z,13.94
2023-05-15T05:05:37.997Z,13.99
2023-05-15T05:09:41.577Z,14.05
2023-05-15T05:13:44.989Z,14.14
2023-05-15T05:17:49.672Z,14.24
2023-05-15T05:21:52.938Z,14.31
2023-05-15T05:25:55.982Z,14.44
2023-05-15T05:29:59.416Z,14.55
2023-05-15T05:34:04.270Z,14.67
2023-05-15T05:38:07.445Z,14.77
2023-05-15T05:42:10.646Z,14.87
2023-05-15T05:46:13.881Z,14.98
2023-05-15T05:50:18.391Z,15.08
2023-05-15T05:54:22.059Z,15.12
2023-05-15T05:58:26.267Z,15.18
2023-05-15T06:02:29.943Z,15.27
2023-05-15T06:06:34.808Z,15.40
2023-05-15T06:10:38.289Z,15.47
2023-05-15T06:14:41.408Z,15.51
2023-05-15T06:18:44.823Z,15.52
2023-05-15T06:22:49.856Z,15.51
2023-05-15T06:26:53.216Z,15.51
2023-05-15T06:30:56.416Z,15.51
2023-05-15T06:34:59.929Z,15.53
2023-05-15T06:39:04.306Z,15.54
2023-05-15T06:43:07.923Z,15.54
2023-05-15T06:47:10.995Z,15.53
2023-05-15T06:51:14.806Z,15.55
2023-05-15T06:55:19.507Z,15.67
2023-05-15T06:59:22.695Z,15.81
2023-05-15T07:03:25.961Z,15.99
2023-05-15T07:07:29.045Z,16.16
2023-05-15T07:11:37.579Z,16.34
2023-05-15T07:15:41.234Z,16.51
2023-05-15T07:19:44.881Z,16.71
2023-05-15T07:23:48.230Z,16.86
2023-05-15T07:27:52.775Z,16.99
2023-05-15T07:31:56.112Z,17.14
2023-05-15T07:35:59.530Z,17.20
2023-05-15T07:40:03.078Z,17.25
2023-05-15T07:44:07.896Z,17.41
2023-05-15T07:48:19.145Z,17.57
2023-05-15T07:52:22.258Z,17.64
2023-05-15T07:56:25.671Z,17.68
2023-05-15T08:00:30.110Z,17.71
2023-05-15T08:04:33.491Z,17.77
2023-05-15T08:08:36.778Z,17.90
2023-05-15T08:12:46.461Z,18.01
2023-05-15T08:16:51.863Z,18.09
2023-05-15T08:20:55.234Z,18.10
2023-05-15T08:25:00.333Z,18.16
2023-05-15T08:29:03.909Z,18.26
2023-05-15T08:33:08.495Z,18.33
2023-05-15T08:37:12.067Z,18.36
2023-05-15T08:41:39.178Z,18.35
2023-05-15T08:45:43.659Z,18.35
2023-05-15T08:49:55.282Z,18.33
2023-05-15T08:53:59.467Z,18.25
2023-05-15T08:58:03.436Z,18.21
2023-05-15T09:02:07.568Z,18.24
2023-05-15T09:06:12.356Z,18.39
2023-05-15T09:10:17.227Z,18.57
2023-05-15T09:14:20.292Z,18.73
2023-05-15T09:18:25.381Z,18.81
2023-05-15T09:22:35.811Z,18.74
2023-05-15T09:26:39.242Z,18.53
2023-05-15T09:30:44.002Z,18.36
2023-05-15T09:34:48.230Z,18.09
2023-05-15T09:39:00.205Z,17.96
2023-05-15T09:43:03.457Z,17.85
2023-05-15T09:47:07.873Z,17.93
2023-05-15T09:51:16.724Z,18.15
2023-05-15T09:55:24.014Z,18.53
2023-05-15T09:59:27.694Z,18.97
2023-05-15T10:03:30.987Z,19.35
2023-05-15T10:07:35.802Z,19.58
2023-05-15T10:11:42.016Z,19.80
2023-05-15T10:15:46.107Z,19.88
2023-05-15T10:24:01.995Z,19.76
2023-05-15T10:28:10.132Z,19.54
2023-05-15T10:32:14.323Z,19.26
2023-05-15T10:36:18.555Z,19.03
2023-05-15T10:40:21.659Z,18.84
2023-05-15T10:44:26.708Z,18.63
2023-05-15T10:48:31.084Z,18.36
2023-05-15T10:52:34.691Z,18.11
2023-05-15T10:56:40.852Z,17.89
2023-05-15T11:00:46.943Z,17.77
2023-05-15T11:04:54.720Z,17.75
2023-05-15T11:09:36.617Z,17.84
2023-05-15T11:14:15.510Z,18.07
2023-05-15T11:18:22.015Z,18.41
2023-05-15T11:22:32.139Z,18.78
2023-05-15T11:26:35.429Z,19.09
2023-05-15T11:30:40.053Z,19.30
2023-05-15T11:34:45.320Z,19.48
2023-05-15T11:38:52.459Z,19.76
2023-05-15T11:43:07.914Z,20.02
2023-05-15T11:47:12.334Z,20.26
2023-05-15T11:51:21.968Z,20.41
2023-05-15T11:55:27.554Z,20.40
2023-05-15T11:59:32.101Z,20.48
2023-05-15T12:03:36.311Z,20.59
2023-05-15T12:07:43.761Z,20.67
2023-05-15T12:11:52.296Z,20.64
2023-05-15T12:15:57.143Z,20.51
2023-05-15T12:20:01.375Z,20.35
2023-05-15T12:24:08.335Z,20.27
2023-05-15T12:28:13.299Z,20.14
2023-05-15T12:32:17.789Z,20.07
2023-05-15T12:36:22.571Z,20.15
2023-05-15T12:41:25.758Z,20.43
2023-05-15T12:45:29.166Z,20.87
2023-05-15T12:49:32.511Z,20.95
2023-05-15T12:53:36.492Z,21.05
2023-05-15T12:57:43.282Z,20.98
2023-05-15T13:01:46.842Z,20.91
2023-05-15T13:05:50.489Z,20.77
2023-05-15T13:10:04.831Z,20.70
2023-05-15T13:14:17.812Z,20.80
2023-05-15T13:18:21.212Z,21.20
2023-05-15T13:22:25.091Z,21.19
2023-05-15T13:26:28.783Z,21.21
2023-05-15T13:30:34.354Z,21.26
2023-05-15T13:34:37.655Z,21.39
2023-05-15T13:38:41.200Z,21.41
2023-05-15T13:42:47.435Z,21.40
2023-05-15T13:46:55.013Z,21.21
2023-05-15T13:50:58.629Z,21.04
2023-05-15T13:55:01.854Z,21.00
2023-05-15T13:59:05.302Z,20.88
2023-05-15T14:03:11.252Z,20.71
2023-05-15T14:07:16.003Z,20.60
2023-05-15T14:11:19.348Z,20.59
2023-05-15T14:15:25.181Z,20.74
2023-05-15T14:19:29.872Z,21.19
2023-05-15T14:23:33.370Z,21.70
2023-05-15T14:27:36.641Z,22.17
2023-05-15T14:31:39.698Z,22.45
2023-05-15T14:35:44.417Z,22.49
2023-05-15T14:39:47.866Z,22.50
2023-05-15T14:43:51.133Z,22.55
2023-05-15T14:47:54.572Z,22.55
2023-05-15T14:51:59.309Z,22.54
2023-05-15T14:56:04.780Z,22.55
2023-05-15T15:00:11.225Z,22.66
2023-05-15T15:04:14.568Z,22.73
2023-05-15T15:08:20.198Z,22.71
2023-05-15T15:12:23.724Z,22.80
2023-05-15T15:16:27.377Z,22.75
2023-05-15T15:20:30.715Z,22.47
2023-05-15T15:24:35.237Z,22.10
2023-05-15T15:28:38.669Z,21.82
2023-05-15T15:32:43.206Z,21.58
2023-05-15T15:36:46.612Z,21.42
2023-05-15T15:40:51.434Z,21.26
2023-05-15T15:44:55.047Z,21.11
2023-05-15T15:48:58.438Z,20.98
2023-05-15T15:53:01.898Z,20.86
2023-05-15T15:57:07.441Z,20.75
2023-05-15T16:01:11.517Z,20.66
2023-05-15T16:05:15.553Z,20.65
2023-05-15T16:09:20.065Z,20.65
2023-05-15T16:13:25.029Z,20.62
2023-05-15T16:17:27.952Z,20.56
2023-05-15T16:21:31.369Z,20.52
2023-05-15T16:25:34.408Z,20.41
2023-05-15T16:29:39.093Z,20.39
2023-05-15T16:33:42.416Z,20.30
2023-05-15T16:37:45.371Z,20.19
2023-05-15T16:41:49.030Z,20.07
2023-05-15T16:45:53.643Z,19.95
2023-05-15T16:49:56.922Z,19.83
2023-05-15T16:54:01.604Z,19.77
2023-05-15T16:58:04.881Z,19.67
2023-05-15T17:02:09.783Z,19.58
2023-05-15T17:06:13.345Z,19.51
2023-05-15T17:10:16.769Z,19.39
2023-05-15T17:14:19.924Z,19.24
2023-05-15T17:18:25.653Z,18.90
2023-05-15T17:22:29.311Z,18.50
2023-05-15T17:26:36.722Z,18.05
2023-05-15T17:30:40.067Z,17.59
2023-05-15T17:34:46.785Z,17.30
2023-05-15T17:38:51.555Z,17.02
2023-05-15T17:42:55.012Z,16.80
2023-05-15T17:46:58.377Z,16.62
2023-05-15T17:51:03.274Z,16.49
2023-05-15T17:55:08.215Z,16.40
2023-05-15T17:59:11.539Z,16.35
2023-05-15T18:03:15.485Z,16.29
2023-05-15T18:07:20.492Z,16.21
2023-05-15T18:11:23.616Z,16.15
2023-05-15T18:15:27.344Z,16.08
2023-05-15T18:19:31.023Z,16.03
2023-05-15T18:23:35.618Z,15.98
2023-05-15T18:27:38.733Z,15.94
2023-05-15T18:31:42.494Z,15.90
2023-05-15T18:35:46.084Z,15.82
2023-05-15T18:39:51.126Z,15.74
2023-05-15T18:43:54.338Z,15.73
2023-05-15T18:47:58.932Z,15.53
2023-05-15T18:52:04.242Z,15.48
2023-05-15T18:56:09.265Z,15.44
2023-05-15T19:00:16.831Z,15.33
2023-05-15T19:04:24.683Z,15.32
2023-05-15T19:08:29.063Z,15.33
2023-05-15T19:12:33.980Z,15.31
2023-05-15T19:16:37.902Z,15.23
2023-05-15T19:20:41.258Z,15.16
2023-05-15T19:24:44.535Z,15.14
2023-05-15T19:28:49.246Z,15.11
2023-05-15T19:32:52.789Z,15.05
2023-05-15T19:36:56.482Z,14.96
2023-05-15T19:40:59.940Z,14.90
2023-05-15T19:45:05.333Z,14.85
2023-05-15T19:49:08.621Z,14.75
2023-05-15T19:53:12.636Z,14.66
2023-05-15T19:57:16.284Z,14.56
2023-05-15T20:01:21.183Z,14.50
2023-05-15T20:05:24.759Z,14.43
2023-05-15T20:09:27.732Z,14.37
2023-05-15T20:13:31.591Z,14.36
2023-05-15T20:17:36.771Z,14.37
2023-05-15T20:21:40.421Z,14.41
2023-05-15T20:25:43.748Z,14.45
2023-05-15T20:29:46.988Z,14.43
2023-05-15T20:33:52.168Z,14.42
2023-05-15T20:37:56.580Z,14.37
2023-05-15T20:42:00.202Z,14.33
2023-05-15T20:46:03.233Z,14.26
2023-05-15T20:50:09.694Z,14.19
2023-05-15T20:54:13.161Z,14.09
2023-05-15T20:58:16.979Z,13.96
2023-05-15T21:02:20.083Z,13.89
2023-05-15T21:06:25.118Z,13.80
2023-05-15T21:10:28.390Z,13.71
2023-05-15T21:14:32.288Z,13.61
2023-05-15T21:18:35.807Z,13.55
2023-05-15T21:22:41.438Z,13.40
2023-05-15T21:26:44.709Z,13.40
2023-05-15T21:30:48.250Z,13.31
2023-05-15T21:34:51.301Z,13.25
2023-05-15T21:38:56.466Z,13.17
2023-05-15T21:42:59.595Z,13.06
2023-05-15T21:47:03.260Z,12.96
2023-05-15T21:51:06.725Z,12.92
2023-05-15T21:55:13.008Z,12.92
2023-05-15T21:59:16.031Z,12.93
2023-05-15T22:03:20.448Z,12.98
2023-05-15T22:07:23.783Z,13.02
2023-05-15T22:11:28.395Z,13.04
2023-05-15T22:15:32.183Z,13.03
2023-05-15T22:19:36.183Z,13.03
2023-05-15T22:23:39.297Z,13.02
2023-05-15T22:27:44.409Z,13.03
2023-05-15T22:31:47.682Z,13.02
2023-05-15T22:35:51.996Z,13.02
2023-05-15T22:39:55.217Z,13.02
2023-05-15T22:44:00.018Z,12.99
2023-05-15T22:48:03.867Z,12.95
2023-05-15T22:52:07.709Z,12.86
2023-05-15T22:56:10.968Z,12.80
2023-05-15T23:00:18.623Z,12.77
2023-05-15T23:04:22.143Z,12.77
2023-05-15T23:08:25.811Z,12.80
2023-05-15T23:12:29.108Z,12.83
2023-05-15T23:16:34.109Z,12.88
2023-05-15T23:20:37.782Z,12.92
2023-05-15T23:24:41.269Z,12.97
2023-05-15T23:28:44.298Z,13.01
2023-05-15T23:32:49.402Z,13.03
2023-05-15T23:36:52.643Z,13.05
2023-05-15T23:40:56.326Z,13.07
2023-05-15T23:44:59.283Z,13.11
2023-05-15T23:49:04.152Z,13.14
2023-05-15T23:53:08.403Z,13.13
2023-05-15T23:57:12.393Z,13.10
